Nanaimo Airport, British Columbia

Past 24 Hour Conditions

Date / Time
(PST)
Conditions Temp
(°C)
Humidity
(%)
Dew Point
(°C)
Wind
(km/h)
Pressure
(kPa)
Visibility
(km)
20 December 2014
9:00 Light Rain 7 96 7 E 12 100.1 3
8:00 Light Rain 7 95 7 ESE 14 100.1 5
7:00 Light Rain 7 94 6 E 12 100.2 13
6:00 Light Rain 7 94 6 ESE 15 100.2 13
5:00 N/A 7 93 6 ESE 14 100.3 N/A
4:00 N/A 7 91 6 ESE 21 gust 30 100.4 N/A
3:00 N/A 8   88 6 SE 17 100.5 N/A
2:00 N/A 8   85 6 SE 20 gust 31 100.6 N/A
1:00 N/A 8   87 6 SE 21 100.7 N/A
00:00 N/A 8   86 5 SE 12 100.8 N/A
19 December 2014
23:00 N/A 7 88 5 S 9 100.9 N/A
22:00 N/A 8   83 5 SE 17 100.9 N/A
21:00 Mostly Cloudy 8   85 5 SSE 19 101.0 32
20:00 Mostly Cloudy 8   84 5 SE 22 101.0 32
19:00 Mostly Cloudy 8   87 6 SE 14 101.1 24
18:00 Mostly Cloudy 7 90 6 ESE 8 101.1 24
17:00 Mostly Cloudy 7 90 6 SSW 4 101.2 24
16:00 Light Rainshower 7 84 5 SE 16 gust 30 101.2 24
15:00 Mostly Cloudy 8   80 5 SE 9 101.1 24
14:00 Light Rainshower 8   78 5 SE 19 gust 29 101.1 24
13:00 Light Rainshower 8   81 5 SE 16 gust 29 101.1 24
12:00 Light Rain 8   88 6 SE 5 101.1 48
11:00 Light Rain 7 92 6 SE 7 101.2 24
10:00 Mostly Cloudy 6   93 5 S 8 101.1 24
9:00 Partly Cloudy 6   93 5 S 9 101.0 24
N/A Not available
↑ Highest temperature
↓ Lowest temperature

If you require additional historical weather information, please visit Climate Data Online.

What we are doing

Date modified: